CA-0704 weather

CLOSED RCAF Scoudouc
Scoudouc, New Brunswick, Canada

Public forecast

Using degrees Celsius for public forecast. Weather courtesy of forecast.io.

METAR (pilot weather report)

Closest report is Greater Moncton International Airport, 5.2 nm (9.6 km) SW. Retrieved 2019/08/23 10:00 UTC (40 minutes ago):

CYQM 231000Z 24006KT 15SM FEW040 BKN090 BKN250 18/18 A2976 RMK SC1AC6CI1 SC TR SLP080 DENSITY ALT 900FT

TAF (pilot weather forecast)

Closest forecast is Greater Moncton International Airport, 5.2 nm (9.6 km) SW. Retrieved 2019/08/23 06:42 UTC (4 hours ago):

TAF CYQM 230538Z 2306/2406 23007KT P6SM SCT060 TEMPO 2306/2312 BKN060 BECMG 2306/2308 25010KT FM231200 25012KT P6SM FEW010 BECMG 2313/2315 24012G22KT FM240000 27010KT P6SM SCT050 RMK NXT FCST BY 231200Z